sensor_id;sensor_type;location;lat;lon;timestamp;temperature;humidity
36212;DHT22;22247;48.586;13.492;2023-07-13T00:00:01;18.90;99.90
36212;DHT22;22247;48.586;13.492;2023-07-13T00:02:27;19.00;99.90
36212;DHT22;22247;48.586;13.492;2023-07-13T00:04:54;19.00;99.90
36212;DHT22;22247;48.586;13.492;2023-07-13T00:07:19;19.00;99.90
36212;DHT22;22247;48.586;13.492;2023-07-13T00:09:47;19.10;99.90
36212;DHT22;22247;48.586;13.492;2023-07-13T00:12:31;19.10;99.90
36212;DHT22;22247;48.586;13.492;2023-07-13T00:15:00;19.10;99.90
36212;DHT22;22247;48.586;13.492;2023-07-13T00:17:26;19.10;99.90
36212;DHT22;22247;48.586;13.492;2023-07-13T00:19:55;19.10;99.90
36212;DHT22;22247;48.586;13.492;2023-07-13T00:22:24;19.10;99.90
36212;DHT22;22247;48.586;13.492;2023-07-13T00:24:49;19.10;99.90
36212;DHT22;22247;48.586;13.492;2023-07-13T00:27:16;19.10;99.90
36212;DHT22;22247;48.586;13.492;2023-07-13T00:29:44;19.10;99.90
36212;DHT22;22247;48.586;13.492;2023-07-13T00:32:09;19.20;99.90
36212;DHT22;22247;48.586;13.492;2023-07-13T00:34:34;19.20;99.90
36212;DHT22;22247;48.586;13.492;2023-07-13T00:37:03;19.20;99.90
36212;DHT22;22247;48.586;13.492;2023-07-13T00:39:33;19.20;99.90
36212;DHT22;22247;48.586;13.492;2023-07-13T00:41:57;19.20;99.90
36212;DHT22;22247;48.586;13.492;2023-07-13T00:44:22;19.20;99.90
36212;DHT22;22247;48.586;13.492;2023-07-13T00:46:47;19.20;99.90
36212;DHT22;22247;48.586;13.492;2023-07-13T00:49:15;19.20;99.90
36212;DHT22;22247;48.586;13.492;2023-07-13T00:51:44;19.20;99.90
36212;DHT22;22247;48.586;13.492;2023-07-13T00:54:14;19.30;99.90
36212;DHT22;22247;48.586;13.492;2023-07-13T00:56:41;19.20;99.90
36212;DHT22;22247;48.586;13.492;2023-07-13T00:59:10;19.20;99.90
36212;DHT22;22247;48.586;13.492;2023-07-13T01:01:36;19.30;99.90
36212;DHT22;22247;48.586;13.492;2023-07-13T01:04:01;19.30;99.90
36212;DHT22;22247;48.586;13.492;2023-07-13T01:06:25;19.30;99.90
36212;DHT22;22247;48.586;13.492;2023-07-13T01:08:55;19.20;99.90
36212;DHT22;22247;48.586;13.492;2023-07-13T01:11:21;19.30;99.90
36212;DHT22;22247;48.586;13.492;2023-07-13T01:13:51;19.20;99.90
36212;DHT22;22247;48.586;13.492;2023-07-13T01:16:24;19.20;99.90
36212;DHT22;22247;48.586;13.492;2023-07-13T01:18:49;19.20;99.90
36212;DHT22;22247;48.586;13.492;2023-07-13T01:21:14;19.20;99.90
36212;DHT22;22247;48.586;13.492;2023-07-13T01:23:38;19.20;99.90
36212;DHT22;22247;48.586;13.492;2023-07-13T01:26:03;19.10;99.90
36212;DHT22;22247;48.586;13.492;2023-07-13T01:28:28;19.20;99.90
36212;DHT22;22247;48.586;13.492;2023-07-13T01:30:55;19.10;99.90
36212;DHT22;22247;48.586;13.492;2023-07-13T01:33:20;19.20;99.90
36212;DHT22;22247;48.586;13.492;2023-07-13T01:35:46;19.20;99.90
36212;DHT22;22247;48.586;13.492;2023-07-13T01:38:11;19.10;99.90
36212;DHT22;22247;48.586;13.492;2023-07-13T01:40:37;19.10;99.90
36212;DHT22;22247;48.586;13.492;2023-07-13T01:43:05;19.10;99.90
36212;DHT22;22247;48.586;13.492;2023-07-13T01:45:30;19.10;99.90
36212;DHT22;22247;48.586;13.492;2023-07-13T01:47:57;19.00;99.90
36212;DHT22;22247;48.586;13.492;2023-07-13T01:50:22;19.00;99.90
36212;DHT22;22247;48.586;13.492;2023-07-13T01:52:47;18.90;99.90
36212;DHT22;22247;48.586;13.492;2023-07-13T01:55:11;18.90;99.90
36212;DHT22;22247;48.586;13.492;2023-07-13T01:57:36;18.90;99.90
36212;DHT22;22247;48.586;13.492;2023-07-13T02:00:05;18.90;99.90
36212;DHT22;22247;48.586;13.492;2023-07-13T02:02:31;18.90;99.90
36212;DHT22;22247;48.586;13.492;2023-07-13T02:04:55;18.90;99.90
36212;DHT22;22247;48.586;13.492;2023-07-13T02:07:20;18.80;99.90
36212;DHT22;22247;48.586;13.492;2023-07-13T02:09:45;18.90;99.90
36212;DHT22;22247;48.586;13.492;2023-07-13T02:12:09;18.80;99.90
36212;DHT22;22247;48.586;13.492;2023-07-13T02:14:34;18.90;99.90
36212;DHT22;22247;48.586;13.492;2023-07-13T02:17:03;18.80;99.90
36212;DHT22;22247;48.586;13.492;2023-07-13T02:19:28;18.80;99.90
36212;DHT22;22247;48.586;13.492;2023-07-13T02:21:52;18.70;99.90
36212;DHT22;22247;48.586;13.492;2023-07-13T02:24:17;18.60;99.90
36212;DHT22;22247;48.586;13.492;2023-07-13T02:26:44;18.80;99.90
36212;DHT22;22247;48.586;13.492;2023-07-13T02:29:09;18.70;99.90
36212;DHT22;22247;48.586;13.492;2023-07-13T02:31:33;18.70;99.90
36212;DHT22;22247;48.586;13.492;2023-07-13T02:34:00;18.80;99.90
36212;DHT22;22247;48.586;13.492;2023-07-13T02:36:27;18.70;99.90
36212;DHT22;22247;48.586;13.492;2023-07-13T02:38:51;18.80;99.90
36212;DHT22;22247;48.586;13.492;2023-07-13T02:41:16;18.70;99.90
36212;DHT22;22247;48.586;13.492;2023-07-13T02:43:43;18.70;99.90
36212;DHT22;22247;48.586;13.492;2023-07-13T02:46:08;18.80;99.90
36212;DHT22;22247;48.586;13.492;2023-07-13T02:48:34;18.80;99.90
36212;DHT22;22247;48.586;13.492;2023-07-13T02:50:58;18.80;99.90
36212;DHT22;22247;48.586;13.492;2023-07-13T02:53:23;18.90;99.90
36212;DHT22;22247;48.586;13.492;2023-07-13T02:55:47;18.90;99.90
36212;DHT22;22247;48.586;13.492;2023-07-13T02:58:12;18.80;99.90
36212;DHT22;22247;48.586;13.492;2023-07-13T03:00:40;18.90;99.90
36212;DHT22;22247;48.586;13.492;2023-07-13T03:03:05;19.00;99.90
36212;DHT22;22247;48.586;13.492;2023-07-13T03:05:30;19.00;99.90
36212;DHT22;22247;48.586;13.492;2023-07-13T03:07:54;19.00;99.90
36212;DHT22;22247;48.586;13.492;2023-07-13T03:10:19;19.10;99.90
36212;DHT22;22247;48.586;13.492;2023-07-13T03:12:44;19.20;99.90
36212;DHT22;22247;48.586;13.492;2023-07-13T03:15:11;19.10;99.90
36212;DHT22;22247;48.586;13.492;2023-07-13T03:17:35;19.20;99.90
36212;DHT22;22247;48.586;13.492;2023-07-13T03:20:00;19.10;99.90
36212;DHT22;22247;48.586;13.492;2023-07-13T03:22:24;19.20;99.90
36212;DHT22;22247;48.586;13.492;2023-07-13T03:24:49;19.20;99.90
36212;DHT22;22247;48.586;13.492;2023-07-13T03:27:17;19.20;99.90
36212;DHT22;22247;48.586;13.492;2023-07-13T03:29:42;19.10;99.90
36212;DHT22;22247;48.586;13.492;2023-07-13T03:32:07;19.20;99.90
36212;DHT22;22247;48.586;13.492;2023-07-13T03:34:31;19.10;99.90
36212;DHT22;22247;48.586;13.492;2023-07-13T03:36:57;19.00;99.90
36212;DHT22;22247;48.586;13.492;2023-07-13T03:39:21;19.00;99.90
36212;DHT22;22247;48.586;13.492;2023-07-13T03:41:46;19.10;99.90
36212;DHT22;22247;48.586;13.492;2023-07-13T03:44:11;19.10;99.90
36212;DHT22;22247;48.586;13.492;2023-07-13T03:46:36;19.10;99.90
36212;DHT22;22247;48.586;13.492;2023-07-13T03:49:01;19.10;99.90
36212;DHT22;22247;48.586;13.492;2023-07-13T03:51:26;19.10;99.90
36212;DHT22;22247;48.586;13.492;2023-07-13T03:53:50;19.10;99.90
36212;DHT22;22247;48.586;13.492;2023-07-13T03:56:17;19.20;99.90
36212;DHT22;22247;48.586;13.492;2023-07-13T03:58:44;19.20;99.90
36212;DHT22;22247;48.586;13.492;2023-07-13T04:01:10;19.20;99.90
36212;DHT22;22247;48.586;13.492;2023-07-13T04:03:38;19.10;99.90
36212;DHT22;22247;48.586;13.492;2023-07-13T04:06:14;19.20;99.90
36212;DHT22;22247;48.586;13.492;2023-07-13T04:08:39;19.20;99.90
36212;DHT22;22247;48.586;13.492;2023-07-13T04:11:04;19.20;99.90
36212;DHT22;22247;48.586;13.492;2023-07-13T04:13:31;19.30;99.90
36212;DHT22;22247;48.586;13.492;2023-07-13T04:15:56;19.20;99.90
36212;DHT22;22247;48.586;13.492;2023-07-13T04:18:21;19.20;99.90
36212;DHT22;22247;48.586;13.492;2023-07-13T04:20:49;19.10;99.90
36212;DHT22;22247;48.586;13.492;2023-07-13T04:23:14;19.20;99.90
36212;DHT22;22247;48.586;13.492;2023-07-13T04:25:38;19.10;99.90
36212;DHT22;22247;48.586;13.492;2023-07-13T04:28:06;19.20;99.90
36212;DHT22;22247;48.586;13.492;2023-07-13T04:30:33;19.20;99.90
36212;DHT22;22247;48.586;13.492;2023-07-13T04:32:58;19.20;99.90
36212;DHT22;22247;48.586;13.492;2023-07-13T04:35:23;19.10;99.90
36212;DHT22;22247;48.586;13.492;2023-07-13T04:37:49;19.10;99.90
36212;DHT22;22247;48.586;13.492;2023-07-13T04:40:14;19.10;99.90
36212;DHT22;22247;48.586;13.492;2023-07-13T04:42:39;19.20;99.90
36212;DHT22;22247;48.586;13.492;2023-07-13T04:45:04;19.30;99.90
36212;DHT22;22247;48.586;13.492;2023-07-13T04:47:30;19.30;99.90
36212;DHT22;22247;48.586;13.492;2023-07-13T04:49:55;19.30;99.90
36212;DHT22;22247;48.586;13.492;2023-07-13T04:52:22;19.30;99.90
36212;DHT22;22247;48.586;13.492;2023-07-13T04:54:46;19.30;99.90
36212;DHT22;22247;48.586;13.492;2023-07-13T04:57:11;19.30;99.90
36212;DHT22;22247;48.586;13.492;2023-07-13T04:59:35;19.30;99.90
36212;DHT22;22247;48.586;13.492;2023-07-13T05:02:00;19.30;99.90
36212;DHT22;22247;48.586;13.492;2023-07-13T05:04:25;19.30;99.90
36212;DHT22;22247;48.586;13.492;2023-07-13T05:06:50;19.30;99.90
36212;DHT22;22247;48.586;13.492;2023-07-13T05:09:17;19.30;99.90
36212;DHT22;22247;48.586;13.492;2023-07-13T05:11:41;19.40;99.90
36212;DHT22;22247;48.586;13.492;2023-07-13T05:14:08;19.40;99.90
36212;DHT22;22247;48.586;13.492;2023-07-13T05:16:34;19.40;99.90
36212;DHT22;22247;48.586;13.492;2023-07-13T05:18:58;19.40;99.90
36212;DHT22;22247;48.586;13.492;2023-07-13T05:21:23;19.50;99.90
36212;DHT22;22247;48.586;13.492;2023-07-13T05:23:48;19.50;99.90
36212;DHT22;22247;48.586;13.492;2023-07-13T05:26:12;19.60;99.90
36212;DHT22;22247;48.586;13.492;2023-07-13T05:28:40;19.60;99.90
36212;DHT22;22247;48.586;13.492;2023-07-13T05:31:08;19.60;99.90
36212;DHT22;22247;48.586;13.492;2023-07-13T05:33:33;19.60;99.90
36212;DHT22;22247;48.586;13.492;2023-07-13T05:35:58;20.70;99.90
36212;DHT22;22247;48.586;13.492;2023-07-13T05:38:24;19.60;99.90
36212;DHT22;22247;48.586;13.492;2023-07-13T05:40:50;19.60;99.90
36212;DHT22;22247;48.586;13.492;2023-07-13T05:43:15;19.60;99.90
36212;DHT22;22247;48.586;13.492;2023-07-13T05:45:40;19.60;99.90
36212;DHT22;22247;48.586;13.492;2023-07-13T05:48:05;19.60;99.90
36212;DHT22;22247;48.586;13.492;2023-07-13T05:50:29;19.60;99.90
36212;DHT22;22247;48.586;13.492;2023-07-13T05:52:56;19.60;99.90
36212;DHT22;22247;48.586;13.492;2023-07-13T05:55:21;19.70;99.90
36212;DHT22;22247;48.586;13.492;2023-07-13T05:57:46;19.60;99.90
36212;DHT22;22247;48.586;13.492;2023-07-13T06:00:14;19.70;99.90
36212;DHT22;22247;48.586;13.492;2023-07-13T06:02:41;19.70;99.90
36212;DHT22;22247;48.586;13.492;2023-07-13T06:05:06;19.80;99.90
36212;DHT22;22247;48.586;13.492;2023-07-13T06:07:33;19.80;99.90
36212;DHT22;22247;48.586;13.492;2023-07-13T06:10:00;19.70;99.90
36212;DHT22;22247;48.586;13.492;2023-07-13T06:12:27;19.70;99.90
36212;DHT22;22247;48.586;13.492;2023-07-13T06:14:52;19.70;99.90
36212;DHT22;22247;48.586;13.492;2023-07-13T06:17:17;19.90;99.90
36212;DHT22;22247;48.586;13.492;2023-07-13T06:19:42;20.00;99.90
36212;DHT22;22247;48.586;13.492;2023-07-13T06:22:06;20.00;99.90
36212;DHT22;22247;48.586;13.492;2023-07-13T06:24:31;20.10;99.90
36212;DHT22;22247;48.586;13.492;2023-07-13T06:26:58;20.10;99.90
36212;DHT22;22247;48.586;13.492;2023-07-13T06:29:23;20.10;99.90
36212;DHT22;22247;48.586;13.492;2023-07-13T06:31:48;20.20;99.90
36212;DHT22;22247;48.586;13.492;2023-07-13T06:34:13;20.30;99.90
36212;DHT22;22247;48.586;13.492;2023-07-13T06:36:38;20.40;99.90
36212;DHT22;22247;48.586;13.492;2023-07-13T06:39:03;20.40;99.90
36212;DHT22;22247;48.586;13.492;2023-07-13T06:41:28;20.40;99.90
36212;DHT22;22247;48.586;13.492;2023-07-13T06:43:52;20.40;99.90
36212;DHT22;22247;48.586;13.492;2023-07-13T06:46:20;20.40;99.90
36212;DHT22;22247;48.586;13.492;2023-07-13T06:48:45;20.40;99.90
36212;DHT22;22247;48.586;13.492;2023-07-13T06:51:10;20.40;99.90
36212;DHT22;22247;48.586;13.492;2023-07-13T06:53:35;20.50;99.90
36212;DHT22;22247;48.586;13.492;2023-07-13T06:55:59;20.50;99.90
36212;DHT22;22247;48.586;13.492;2023-07-13T06:58:27;20.50;99.90
36212;DHT22;22247;48.586;13.492;2023-07-13T07:00:52;20.60;99.90
36212;DHT22;22247;48.586;13.492;2023-07-13T07:03:17;20.70;99.90
36212;DHT22;22247;48.586;13.492;2023-07-13T07:05:42;20.80;99.90
36212;DHT22;22247;48.586;13.492;2023-07-13T07:08:07;20.80;99.90
36212;DHT22;22247;48.586;13.492;2023-07-13T07:10:33;20.90;99.90
36212;DHT22;22247;48.586;13.492;2023-07-13T07:12:57;20.90;99.90
36212;DHT22;22247;48.586;13.492;2023-07-13T07:15:22;20.90;99.90
36212;DHT22;22247;48.586;13.492;2023-07-13T07:17:47;20.90;99.90
36212;DHT22;22247;48.586;13.492;2023-07-13T07:20:11;20.90;99.90
36212;DHT22;22247;48.586;13.492;2023-07-13T07:22:36;20.80;99.90
36212;DHT22;22247;48.586;13.492;2023-07-13T07:25:03;20.80;99.90
36212;DHT22;22247;48.586;13.492;2023-07-13T07:27:28;20.90;99.90
36212;DHT22;22247;48.586;13.492;2023-07-13T07:29:55;21.10;99.90
36212;DHT22;22247;48.586;13.492;2023-07-13T07:32:22;21.30;99.90
36212;DHT22;22247;48.586;13.492;2023-07-13T07:34:46;21.50;99.90
36212;DHT22;22247;48.586;13.492;2023-07-13T07:37:12;21.60;99.90
36212;DHT22;22247;48.586;13.492;2023-07-13T07:39:37;21.80;99.90
36212;DHT22;22247;48.586;13.492;2023-07-13T07:42:02;21.80;99.90
36212;DHT22;22247;48.586;13.492;2023-07-13T07:44:31;21.60;99.90
36212;DHT22;22247;48.586;13.492;2023-07-13T07:46:55;21.60;99.90
36212;DHT22;22247;48.586;13.492;2023-07-13T07:49:20;21.40;99.90
36212;DHT22;22247;48.586;13.492;2023-07-13T07:51:45;21.50;99.90
36212;DHT22;22247;48.586;13.492;2023-07-13T07:54:09;21.50;99.90
36212;DHT22;22247;48.586;13.492;2023-07-13T07:56:34;21.60;99.90
36212;DHT22;22247;48.586;13.492;2023-07-13T07:58:59;21.80;99.90
36212;DHT22;22247;48.586;13.492;2023-07-13T08:01:24;21.70;99.90
36212;DHT22;22247;48.586;13.492;2023-07-13T08:03:51;21.80;99.90
36212;DHT22;22247;48.586;13.492;2023-07-13T08:06:16;21.70;99.90
36212;DHT22;22247;48.586;13.492;2023-07-13T08:08:44;21.60;99.90
36212;DHT22;22247;48.586;13.492;2023-07-13T08:11:09;21.30;99.90
36212;DHT22;22247;48.586;13.492;2023-07-13T08:13:34;21.80;99.90
36212;DHT22;22247;48.586;13.492;2023-07-13T08:15:59;21.80;99.90
36212;DHT22;22247;48.586;13.492;2023-07-13T08:18:28;22.00;99.90
36212;DHT22;22247;48.586;13.492;2023-07-13T08:20:55;22.00;99.90
36212;DHT22;22247;48.586;13.492;2023-07-13T08:23:24;22.00;99.90
36212;DHT22;22247;48.586;13.492;2023-07-13T08:25:53;22.10;99.90
36212;DHT22;22247;48.586;13.492;2023-07-13T08:28:18;22.10;99.90
36212;DHT22;22247;48.586;13.492;2023-07-13T08:31:07;22.10;99.90
36212;DHT22;22247;48.586;13.492;2023-07-13T08:33:34;22.00;99.90
36212;DHT22;22247;48.586;13.492;2023-07-13T08:35:59;22.00;99.90
36212;DHT22;22247;48.586;13.492;2023-07-13T08:38:27;22.00;99.90
36212;DHT22;22247;48.586;13.492;2023-07-13T08:40:56;22.10;99.90
36212;DHT22;22247;48.586;13.492;2023-07-13T08:43:26;22.10;99.90
36212;DHT22;22247;48.586;13.492;2023-07-13T08:46:00;22.20;99.90
36212;DHT22;22247;48.586;13.492;2023-07-13T08:48:35;22.20;99.90
36212;DHT22;22247;48.586;13.492;2023-07-13T08:51:09;22.20;99.90
36212;DHT22;22247;48.586;13.492;2023-07-13T08:53:46;22.20;99.90
36212;DHT22;22247;48.586;13.492;2023-07-13T08:56:19;22.10;99.90
36212;DHT22;22247;48.586;13.492;2023-07-13T08:58:47;22.10;99.90
36212;DHT22;22247;48.586;13.492;2023-07-13T09:04:05;22.00;99.90
36212;DHT22;22247;48.586;13.492;2023-07-13T09:07:00;22.10;99.90
36212;DHT22;22247;48.586;13.492;2023-07-13T09:17:49;22.50;99.90
36212;DHT22;22247;48.586;13.492;2023-07-13T09:22:52;22.60;99.90
36212;DHT22;22247;48.586;13.492;2023-07-13T09:25:33;22.70;99.90
36212;DHT22;22247;48.586;13.492;2023-07-13T09:28:05;22.80;99.90
36212;DHT22;22247;48.586;13.492;2023-07-13T09:33:30;22.80;99.90
36212;DHT22;22247;48.586;13.492;2023-07-13T09:35:58;23.00;99.90
36212;DHT22;22247;48.586;13.492;2023-07-13T09:38:25;23.00;99.90
36212;DHT22;22247;48.586;13.492;2023-07-13T09:41:20;23.00;99.90
36212;DHT22;22247;48.586;13.492;2023-07-13T09:46:30;23.10;99.90
36212;DHT22;22247;48.586;13.492;2023-07-13T09:48:56;23.10;99.90
36212;DHT22;22247;48.586;13.492;2023-07-13T09:51:22;23.00;99.90
36212;DHT22;22247;48.586;13.492;2023-07-13T09:53:47;23.10;99.90
36212;DHT22;22247;48.586;13.492;2023-07-13T09:58:45;23.40;99.90
36212;DHT22;22247;48.586;13.492;2023-07-13T10:01:10;23.50;99.90
36212;DHT22;22247;48.586;13.492;2023-07-13T10:03:36;23.60;99.90
36212;DHT22;22247;48.586;13.492;2023-07-13T10:06:15;23.70;99.90
36212;DHT22;22247;48.586;13.492;2023-07-13T10:08:49;23.50;99.90
36212;DHT22;22247;48.586;13.492;2023-07-13T10:11:21;23.40;99.90
36212;DHT22;22247;48.586;13.492;2023-07-13T10:14:02;23.50;99.90
36212;DHT22;22247;48.586;13.492;2023-07-13T10:16:31;23.30;99.90
36212;DHT22;22247;48.586;13.492;2023-07-13T10:19:24;23.20;99.90
36212;DHT22;22247;48.586;13.492;2023-07-13T10:21:57;23.30;99.90
36212;DHT22;22247;48.586;13.492;2023-07-13T10:24:29;23.40;99.90
36212;DHT22;22247;48.586;13.492;2023-07-13T10:29:29;23.60;99.90
36212;DHT22;22247;48.586;13.492;2023-07-13T10:31:54;23.80;99.90
36212;DHT22;22247;48.586;13.492;2023-07-13T10:34:21;24.00;99.70
36212;DHT22;22247;48.586;13.492;2023-07-13T10:36:47;24.00;99.90
36212;DHT22;22247;48.586;13.492;2023-07-13T10:39:30;23.90;98.40
36212;DHT22;22247;48.586;13.492;2023-07-13T10:42:10;23.80;99.30
36212;DHT22;22247;48.586;13.492;2023-07-13T10:44:36;23.80;98.50
36212;DHT22;22247;48.586;13.492;2023-07-13T10:47:03;23.80;98.20
36212;DHT22;22247;48.586;13.492;2023-07-13T10:49:31;23.70;98.20
36212;DHT22;22247;48.586;13.492;2023-07-13T10:51:59;23.70;98.50
36212;DHT22;22247;48.586;13.492;2023-07-13T10:54:32;23.50;98.80
36212;DHT22;22247;48.586;13.492;2023-07-13T10:59:40;23.50;99.40
36212;DHT22;22247;48.586;13.492;2023-07-13T11:05:14;23.20;99.50
36212;DHT22;22247;48.586;13.492;2023-07-13T11:07:56;23.10;99.90
36212;DHT22;22247;48.586;13.492;2023-07-13T11:10:54;23.00;99.90
36212;DHT22;22247;48.586;13.492;2023-07-13T11:16:45;23.00;99.90
36212;DHT22;22247;48.586;13.492;2023-07-13T11:22:03;22.90;99.90
36212;DHT22;22247;48.586;13.492;2023-07-13T11:25:01;22.90;99.90
36212;DHT22;22247;48.586;13.492;2023-07-13T11:27:40;22.90;99.30
36212;DHT22;22247;48.586;13.492;2023-07-13T11:35:41;22.50;97.20
36212;DHT22;22247;48.586;13.492;2023-07-13T11:38:22;22.50;96.70
36212;DHT22;22247;48.586;13.492;2023-07-13T11:40:51;22.50;97.00
36212;DHT22;22247;48.586;13.492;2023-07-13T11:43:21;22.60;97.00
36212;DHT22;22247;48.586;13.492;2023-07-13T11:45:47;22.60;96.50
36212;DHT22;22247;48.586;13.492;2023-07-13T11:48:25;22.60;96.40
36212;DHT22;22247;48.586;13.492;2023-07-13T11:51:02;22.60;96.60
36212;DHT22;22247;48.586;13.492;2023-07-13T11:53:30;22.60;96.20
36212;DHT22;22247;48.586;13.492;2023-07-13T11:55:57;22.60;97.10
36212;DHT22;22247;48.586;13.492;2023-07-13T11:58:25;22.70;96.50
36212;DHT22;22247;48.586;13.492;2023-07-13T12:00:51;22.80;96.40
36212;DHT22;22247;48.586;13.492;2023-07-13T12:03:21;23.00;96.10
36212;DHT22;22247;48.586;13.492;2023-07-13T12:06:02;23.10;95.00
36212;DHT22;22247;48.586;13.492;2023-07-13T12:08:28;23.10;95.20
36212;DHT22;22247;48.586;13.492;2023-07-13T12:10:58;23.20;96.00
36212;DHT22;22247;48.586;13.492;2023-07-13T12:13:23;23.30;95.10
36212;DHT22;22247;48.586;13.492;2023-07-13T12:15:50;23.50;95.40
36212;DHT22;22247;48.586;13.492;2023-07-13T12:18:19;23.60;94.50
36212;DHT22;22247;48.586;13.492;2023-07-13T12:20:46;23.80;94.80
36212;DHT22;22247;48.586;13.492;2023-07-13T12:23:22;24.30;94.70
